Akaska, SD (57420)

11:05 AM CDT on August 31, 2016 (GMT -0500)
Hoven | | Change Station

Elev 1877 ft 45.24 °N, 99.78 °W | Updated 13 seconds ago

Clear
Clear
75.9 °F
Feels Like 78 °F
N
5.4
Wind Variable Wind from WSW
Gusts 5.8 mph

Today
High -- | Low -- °F
--% Chance of Precip.
Yesterday
High -- | Low -- °F
Precip. -- in
Pressure 30.17 in
Visibility 10.0 miles
Clouds Clear
Heat Index 78 °F
Dew Point 47 °F
Humidity 36%
Rainfall 0.00 in
Snow Depth Not available.
7:00 AM 8:17 PM
Waning Crescent, 1% visible
METAR KMBG 311552Z AUTO 16015G22KT 10SM CLR 26/16 A3020 RMK AO2 SLP215 T02560156
Pressure 30.17 in
Visibility 10.0 miles
Clouds Clear
Heat Index 78 °F
Dew Point 47 °F
Humidity 36%
Rainfall 0.00 in
Snow Depth Not available.
7:00 AM 8:17 PM
Waning Crescent, 1% visible
METAR KMBG 311552Z AUTO 16015G22KT 10SM CLR 26/16 A3020 RMK AO2 SLP215 T02560156

10-Day Weather Forecast

Almanac

Astronomy

Aug. 31, 2016 Rise Set
Actual Time
Civil Twilight
Nautical Twilight
Astronomical Twilight
Moon
Length of Visible Light
Length of Day
Tomorrow will be .
, % of the Moon is Illuminated

Today's Extremes

State Highs State Lows

Community

WunderPhotos

Upload Photos

1,936,102 photos uploaded!

WunderBlog® & News

Nearby

Air Quality

  Air Quality AQ Index Pollutant
Not available.

Snow Depth

Station Depth Elevation

Earthquake Activity

City Distance Mag. Time & Date
Minimum magnitude displayed is 2.5.

Coastal Water Temperatures

Place Temperature

Stations

Nearby Weather Stations

Station Location Temp. Windchill Dew Point Humidity Wind Precip. Elev Updated Type
                   

Watches & Warnings

There are currently no watches in effect.